sensor_id;sensor_type;location;lat;lon;timestamp;temperature;humidity
2751;DHT22;1383;48.362;10.908;2024-01-30T00:00:33;1.50;74.00
2751;DHT22;1383;48.362;10.908;2024-01-30T00:03:00;1.50;74.00
2751;DHT22;1383;48.362;10.908;2024-01-30T00:05:27;1.50;74.20
2751;DHT22;1383;48.362;10.908;2024-01-30T00:07:54;1.40;74.00
2751;DHT22;1383;48.362;10.908;2024-01-30T00:10:21;1.40;74.20
2751;DHT22;1383;48.362;10.908;2024-01-30T00:12:48;1.30;74.40
2751;DHT22;1383;48.362;10.908;2024-01-30T00:15:14;1.30;75.20
2751;DHT22;1383;48.362;10.908;2024-01-30T00:17:41;1.40;75.30
2751;DHT22;1383;48.362;10.908;2024-01-30T00:20:09;1.30;75.10
2751;DHT22;1383;48.362;10.908;2024-01-30T00:22:36;1.40;75.00
2751;DHT22;1383;48.362;10.908;2024-01-30T00:25:03;1.40;75.00
2751;DHT22;1383;48.362;10.908;2024-01-30T00:27:31;1.30;74.60
2751;DHT22;1383;48.362;10.908;2024-01-30T00:29:57;1.30;74.60
2751;DHT22;1383;48.362;10.908;2024-01-30T00:32:24;1.30;74.50
2751;DHT22;1383;48.362;10.908;2024-01-30T00:34:51;1.30;74.40
2751;DHT22;1383;48.362;10.908;2024-01-30T00:37:18;1.20;75.00
2751;DHT22;1383;48.362;10.908;2024-01-30T00:39:45;1.20;75.30
2751;DHT22;1383;48.362;10.908;2024-01-30T00:42:12;1.20;75.10
2751;DHT22;1383;48.362;10.908;2024-01-30T00:44:39;1.10;75.10
2751;DHT22;1383;48.362;10.908;2024-01-30T00:47:06;1.10;75.50
2751;DHT22;1383;48.362;10.908;2024-01-30T00:49:33;1.10;75.50
2751;DHT22;1383;48.362;10.908;2024-01-30T00:52:00;1.10;75.70
2751;DHT22;1383;48.362;10.908;2024-01-30T00:54:27;1.20;75.50
2751;DHT22;1383;48.362;10.908;2024-01-30T00:56:54;1.10;75.40
2751;DHT22;1383;48.362;10.908;2024-01-30T00:59:21;1.10;75.60
2751;DHT22;1383;48.362;10.908;2024-01-30T01:01:48;1.10;75.90
2751;DHT22;1383;48.362;10.908;2024-01-30T01:04:16;1.10;76.20
2751;DHT22;1383;48.362;10.908;2024-01-30T01:06:43;1.10;76.20
2751;DHT22;1383;48.362;10.908;2024-01-30T01:09:11;1.10;76.10
2751;DHT22;1383;48.362;10.908;2024-01-30T01:11:39;1.10;75.70
2751;DHT22;1383;48.362;10.908;2024-01-30T01:14:06;1.10;76.10
2751;DHT22;1383;48.362;10.908;2024-01-30T01:16:33;1.10;75.90
2751;DHT22;1383;48.362;10.908;2024-01-30T01:19:00;1.00;75.90
2751;DHT22;1383;48.362;10.908;2024-01-30T01:21:28;0.90;75.50
2751;DHT22;1383;48.362;10.908;2024-01-30T01:23:55;0.90;75.90
2751;DHT22;1383;48.362;10.908;2024-01-30T01:26:23;0.90;76.10
2751;DHT22;1383;48.362;10.908;2024-01-30T01:28:49;0.90;76.10
2751;DHT22;1383;48.362;10.908;2024-01-30T01:31:16;0.90;75.70
2751;DHT22;1383;48.362;10.908;2024-01-30T01:33:45;0.90;75.70
2751;DHT22;1383;48.362;10.908;2024-01-30T01:36:13;0.90;76.60
2751;DHT22;1383;48.362;10.908;2024-01-30T01:38:40;1.00;76.30
2751;DHT22;1383;48.362;10.908;2024-01-30T01:41:07;1.00;76.10
2751;DHT22;1383;48.362;10.908;2024-01-30T01:43:34;1.00;75.60
2751;DHT22;1383;48.362;10.908;2024-01-30T01:46:01;0.90;75.10
2751;DHT22;1383;48.362;10.908;2024-01-30T01:48:28;0.90;74.80
2751;DHT22;1383;48.362;10.908;2024-01-30T01:50:57;0.80;75.30
2751;DHT22;1383;48.362;10.908;2024-01-30T01:53:24;0.80;75.30
2751;DHT22;1383;48.362;10.908;2024-01-30T01:55:52;0.80;75.60
2751;DHT22;1383;48.362;10.908;2024-01-30T01:58:20;0.80;75.30
2751;DHT22;1383;48.362;10.908;2024-01-30T02:00:50;0.70;75.10
2751;DHT22;1383;48.362;10.908;2024-01-30T02:03:18;0.60;75.60
2751;DHT22;1383;48.362;10.908;2024-01-30T02:05:48;0.70;75.80
2751;DHT22;1383;48.362;10.908;2024-01-30T02:08:16;0.70;75.40
2751;DHT22;1383;48.362;10.908;2024-01-30T02:10:43;0.60;75.90
2751;DHT22;1383;48.362;10.908;2024-01-30T02:13:10;0.70;76.00
2751;DHT22;1383;48.362;10.908;2024-01-30T02:15:36;0.70;75.40
2751;DHT22;1383;48.362;10.908;2024-01-30T02:18:03;0.70;75.60
2751;DHT22;1383;48.362;10.908;2024-01-30T02:20:31;0.70;75.40
2751;DHT22;1383;48.362;10.908;2024-01-30T02:23:01;0.60;75.30
2751;DHT22;1383;48.362;10.908;2024-01-30T02:25:34;0.50;75.00
2751;DHT22;1383;48.362;10.908;2024-01-30T02:28:01;0.40;75.20
2751;DHT22;1383;48.362;10.908;2024-01-30T02:30:28;0.30;76.00
2751;DHT22;1383;48.362;10.908;2024-01-30T02:32:55;0.20;77.00
2751;DHT22;1383;48.362;10.908;2024-01-30T02:35:22;0.10;77.70
2751;DHT22;1383;48.362;10.908;2024-01-30T02:37:49;0.00;78.70
2751;DHT22;1383;48.362;10.908;2024-01-30T02:40:16;0.00;80.10
2751;DHT22;1383;48.362;10.908;2024-01-30T02:42:43;0.00;81.00
2751;DHT22;1383;48.362;10.908;2024-01-30T02:45:11;-0.10;81.30
2751;DHT22;1383;48.362;10.908;2024-01-30T02:47:39;-0.10;82.00
2751;DHT22;1383;48.362;10.908;2024-01-30T02:50:06;-0.20;82.30
2751;DHT22;1383;48.362;10.908;2024-01-30T02:52:33;-0.20;83.00
2751;DHT22;1383;48.362;10.908;2024-01-30T02:55:01;-0.10;84.00
2751;DHT22;1383;48.362;10.908;2024-01-30T02:57:29;-0.10;84.00
2751;DHT22;1383;48.362;10.908;2024-01-30T02:59:56;0.00;84.00
2751;DHT22;1383;48.362;10.908;2024-01-30T03:02:23;0.00;83.50
2751;DHT22;1383;48.362;10.908;2024-01-30T03:04:50;-0.10;83.10
2751;DHT22;1383;48.362;10.908;2024-01-30T03:07:17;-0.10;83.50
2751;DHT22;1383;48.362;10.908;2024-01-30T03:09:44;-0.10;83.40
2751;DHT22;1383;48.362;10.908;2024-01-30T03:12:11;-0.10;83.10
2751;DHT22;1383;48.362;10.908;2024-01-30T03:14:38;-0.10;83.40
2751;DHT22;1383;48.362;10.908;2024-01-30T03:17:05;-0.10;83.40
2751;DHT22;1383;48.362;10.908;2024-01-30T03:19:31;-0.20;83.50
2751;DHT22;1383;48.362;10.908;2024-01-30T03:21:59;-0.10;84.10
2751;DHT22;1383;48.362;10.908;2024-01-30T03:24:26;-0.10;83.80
2751;DHT22;1383;48.362;10.908;2024-01-30T03:26:53;-0.20;83.30
2751;DHT22;1383;48.362;10.908;2024-01-30T03:29:20;-0.20;83.80
2751;DHT22;1383;48.362;10.908;2024-01-30T03:31:47;-0.10;84.60
2751;DHT22;1383;48.362;10.908;2024-01-30T03:34:14;-0.10;84.70
2751;DHT22;1383;48.362;10.908;2024-01-30T03:36:41;0.00;84.30
2751;DHT22;1383;48.362;10.908;2024-01-30T03:39:08;0.00;83.80
2751;DHT22;1383;48.362;10.908;2024-01-30T03:41:35;0.00;83.60
2751;DHT22;1383;48.362;10.908;2024-01-30T03:44:02;-0.10;83.10
2751;DHT22;1383;48.362;10.908;2024-01-30T03:46:29;0.00;83.40
2751;DHT22;1383;48.362;10.908;2024-01-30T03:48:55;0.10;83.50
2751;DHT22;1383;48.362;10.908;2024-01-30T03:51:22;0.00;83.00
2751;DHT22;1383;48.362;10.908;2024-01-30T03:53:49;0.00;83.10
2751;DHT22;1383;48.362;10.908;2024-01-30T03:56:16;0.00;83.10
2751;DHT22;1383;48.362;10.908;2024-01-30T03:58:43;0.00;83.10
2751;DHT22;1383;48.362;10.908;2024-01-30T04:01:14;0.00;84.00
2751;DHT22;1383;48.362;10.908;2024-01-30T04:03:41;0.00;82.80
2751;DHT22;1383;48.362;10.908;2024-01-30T04:06:10;0.00;82.60
2751;DHT22;1383;48.362;10.908;2024-01-30T04:08:37;0.00;83.20
2751;DHT22;1383;48.362;10.908;2024-01-30T04:11:05;0.00;82.60
2751;DHT22;1383;48.362;10.908;2024-01-30T04:13:33;0.00;83.10
2751;DHT22;1383;48.362;10.908;2024-01-30T04:16:00;0.00;82.70
2751;DHT22;1383;48.362;10.908;2024-01-30T04:18:30;0.00;82.60
2751;DHT22;1383;48.362;10.908;2024-01-30T04:20:57;0.00;82.60
2751;DHT22;1383;48.362;10.908;2024-01-30T04:23:24;0.00;82.40
2751;DHT22;1383;48.362;10.908;2024-01-30T04:25:51;0.00;82.60
2751;DHT22;1383;48.362;10.908;2024-01-30T04:28:18;0.00;83.10
2751;DHT22;1383;48.362;10.908;2024-01-30T04:30:45;0.00;83.10
2751;DHT22;1383;48.362;10.908;2024-01-30T04:33:12;0.00;83.40
2751;DHT22;1383;48.362;10.908;2024-01-30T04:35:39;0.00;84.60
2751;DHT22;1383;48.362;10.908;2024-01-30T04:38:06;0.10;83.60
2751;DHT22;1383;48.362;10.908;2024-01-30T04:40:33;0.10;82.80
2751;DHT22;1383;48.362;10.908;2024-01-30T04:43:00;0.10;82.60
2751;DHT22;1383;48.362;10.908;2024-01-30T04:45:27;0.10;81.90
2751;DHT22;1383;48.362;10.908;2024-01-30T04:47:53;0.10;81.50
2751;DHT22;1383;48.362;10.908;2024-01-30T04:50:20;0.00;81.20
2751;DHT22;1383;48.362;10.908;2024-01-30T04:52:47;0.00;82.00
2751;DHT22;1383;48.362;10.908;2024-01-30T04:55:14;0.00;81.40
2751;DHT22;1383;48.362;10.908;2024-01-30T04:57:41;-0.10;82.00
2751;DHT22;1383;48.362;10.908;2024-01-30T05:00:08;0.00;82.20
2751;DHT22;1383;48.362;10.908;2024-01-30T05:02:35;0.00;82.30
2751;DHT22;1383;48.362;10.908;2024-01-30T05:05:02;0.10;82.50
2751;DHT22;1383;48.362;10.908;2024-01-30T05:07:30;0.20;82.10
2751;DHT22;1383;48.362;10.908;2024-01-30T05:09:57;0.20;81.50
2751;DHT22;1383;48.362;10.908;2024-01-30T05:12:26;0.30;81.00
2751;DHT22;1383;48.362;10.908;2024-01-30T05:14:53;0.20;79.80
2751;DHT22;1383;48.362;10.908;2024-01-30T05:17:20;0.10;79.10
2751;DHT22;1383;48.362;10.908;2024-01-30T05:19:47;0.00;79.40
2751;DHT22;1383;48.362;10.908;2024-01-30T05:22:14;0.00;79.60
2751;DHT22;1383;48.362;10.908;2024-01-30T05:24:43;0.00;79.80
2751;DHT22;1383;48.362;10.908;2024-01-30T05:27:10;0.00;80.60
2751;DHT22;1383;48.362;10.908;2024-01-30T05:29:37;0.00;81.00
2751;DHT22;1383;48.362;10.908;2024-01-30T05:32:04;0.00;81.30
2751;DHT22;1383;48.362;10.908;2024-01-30T05:34:32;0.00;80.80
2751;DHT22;1383;48.362;10.908;2024-01-30T05:36:59;0.00;80.30
2751;DHT22;1383;48.362;10.908;2024-01-30T05:39:26;-0.10;80.00
2751;DHT22;1383;48.362;10.908;2024-01-30T05:41:53;0.00;80.40
2751;DHT22;1383;48.362;10.908;2024-01-30T05:44:20;0.10;80.60
2751;DHT22;1383;48.362;10.908;2024-01-30T05:46:47;0.10;79.40
2751;DHT22;1383;48.362;10.908;2024-01-30T05:49:13;0.00;79.20
2751;DHT22;1383;48.362;10.908;2024-01-30T05:51:40;0.10;79.10
2751;DHT22;1383;48.362;10.908;2024-01-30T05:54:07;0.10;79.20
2751;DHT22;1383;48.362;10.908;2024-01-30T05:56:34;0.20;79.20
2751;DHT22;1383;48.362;10.908;2024-01-30T05:59:01;0.30;78.70
2751;DHT22;1383;48.362;10.908;2024-01-30T06:01:28;0.30;78.40
2751;DHT22;1383;48.362;10.908;2024-01-30T06:03:56;0.30;77.30
2751;DHT22;1383;48.362;10.908;2024-01-30T06:06:23;0.30;77.10
2751;DHT22;1383;48.362;10.908;2024-01-30T06:08:49;0.30;76.40
2751;DHT22;1383;48.362;10.908;2024-01-30T06:11:16;0.30;76.20
2751;DHT22;1383;48.362;10.908;2024-01-30T06:13:43;0.30;76.30
2751;DHT22;1383;48.362;10.908;2024-01-30T06:16:10;0.40;75.60
2751;DHT22;1383;48.362;10.908;2024-01-30T06:18:38;0.30;75.00
2751;DHT22;1383;48.362;10.908;2024-01-30T06:21:05;0.30;75.00
2751;DHT22;1383;48.362;10.908;2024-01-30T06:23:34;0.30;75.60
2751;DHT22;1383;48.362;10.908;2024-01-30T06:26:01;0.40;75.30
2751;DHT22;1383;48.362;10.908;2024-01-30T06:28:27;0.40;75.10
2751;DHT22;1383;48.362;10.908;2024-01-30T06:30:54;0.30;74.30
2751;DHT22;1383;48.362;10.908;2024-01-30T06:33:21;0.30;74.60
2751;DHT22;1383;48.362;10.908;2024-01-30T06:35:48;0.30;74.90
2751;DHT22;1383;48.362;10.908;2024-01-30T06:38:15;0.20;74.50
2751;DHT22;1383;48.362;10.908;2024-01-30T06:40:42;0.20;74.90
2751;DHT22;1383;48.362;10.908;2024-01-30T06:43:09;0.10;75.60
2751;DHT22;1383;48.362;10.908;2024-01-30T06:45:36;0.00;75.90
2751;DHT22;1383;48.362;10.908;2024-01-30T06:48:03;0.00;76.80
2751;DHT22;1383;48.362;10.908;2024-01-30T06:50:30;-0.10;77.50
2751;DHT22;1383;48.362;10.908;2024-01-30T06:52:57;-0.10;78.70
2751;DHT22;1383;48.362;10.908;2024-01-30T06:55:24;0.00;78.80
2751;DHT22;1383;48.362;10.908;2024-01-30T06:57:51;0.00;79.30
2751;DHT22;1383;48.362;10.908;2024-01-30T07:00:18;0.00;79.10
2751;DHT22;1383;48.362;10.908;2024-01-30T07:02:46;0.10;79.40
2751;DHT22;1383;48.362;10.908;2024-01-30T07:05:13;0.20;78.90
2751;DHT22;1383;48.362;10.908;2024-01-30T07:07:41;0.30;78.50
2751;DHT22;1383;48.362;10.908;2024-01-30T07:10:08;0.30;77.90
2751;DHT22;1383;48.362;10.908;2024-01-30T07:12:35;0.40;77.70
2751;DHT22;1383;48.362;10.908;2024-01-30T07:15:02;0.50;77.10
2751;DHT22;1383;48.362;10.908;2024-01-30T07:17:30;0.50;76.40
2751;DHT22;1383;48.362;10.908;2024-01-30T07:19:56;0.50;75.50
2751;DHT22;1383;48.362;10.908;2024-01-30T07:22:23;0.50;75.30
2751;DHT22;1383;48.362;10.908;2024-01-30T07:24:50;0.60;75.40
2751;DHT22;1383;48.362;10.908;2024-01-30T07:27:18;0.70;75.10
2751;DHT22;1383;48.362;10.908;2024-01-30T07:29:45;0.70;74.80
2751;DHT22;1383;48.362;10.908;2024-01-30T07:32:12;0.70;74.50
2751;DHT22;1383;48.362;10.908;2024-01-30T07:34:39;0.70;74.40
2751;DHT22;1383;48.362;10.908;2024-01-30T07:37:19;0.70;74.10
2751;DHT22;1383;48.362;10.908;2024-01-30T07:39:47;0.80;74.70
2751;DHT22;1383;48.362;10.908;2024-01-30T07:42:14;0.90;74.40
2751;DHT22;1383;48.362;10.908;2024-01-30T07:44:40;0.90;73.90
2751;DHT22;1383;48.362;10.908;2024-01-30T07:47:07;1.00;73.80
2751;DHT22;1383;48.362;10.908;2024-01-30T07:49:34;1.20;74.00
2751;DHT22;1383;48.362;10.908;2024-01-30T07:52:01;1.40;73.70
2751;DHT22;1383;48.362;10.908;2024-01-30T07:54:28;1.70;73.10
2751;DHT22;1383;48.362;10.908;2024-01-30T07:56:55;2.00;71.20
2751;DHT22;1383;48.362;10.908;2024-01-30T07:59:22;2.40;69.50
2751;DHT22;1383;48.362;10.908;2024-01-30T08:01:51;2.80;67.00
2751;DHT22;1383;48.362;10.908;2024-01-30T08:04:19;3.10;63.40
2751;DHT22;1383;48.362;10.908;2024-01-30T08:06:46;3.30;60.90
2751;DHT22;1383;48.362;10.908;2024-01-30T08:09:14;3.60;60.00
2751;DHT22;1383;48.362;10.908;2024-01-30T08:11:41;3.90;57.80
2751;DHT22;1383;48.362;10.908;2024-01-30T08:14:08;4.30;56.80
2751;DHT22;1383;48.362;10.908;2024-01-30T08:16:34;4.60;55.80
2751;DHT22;1383;48.362;10.908;2024-01-30T08:19:02;4.90;53.80
2751;DHT22;1383;48.362;10.908;2024-01-30T08:21:29;5.20;52.50
2751;DHT22;1383;48.362;10.908;2024-01-30T08:23:56;5.50;51.40
2751;DHT22;1383;48.362;10.908;2024-01-30T08:26:23;5.70;49.50
2751;DHT22;1383;48.362;10.908;2024-01-30T08:28:50;5.80;48.70
2751;DHT22;1383;48.362;10.908;2024-01-30T08:31:18;5.90;48.10
2751;DHT22;1383;48.362;10.908;2024-01-30T08:33:45;6.00;48.00
2751;DHT22;1383;48.362;10.908;2024-01-30T08:36:17;6.20;47.80
2751;DHT22;1383;48.362;10.908;2024-01-30T08:38:44;6.50;46.70
2751;DHT22;1383;48.362;10.908;2024-01-30T08:41:11;6.50;46.20
2751;DHT22;1383;48.362;10.908;2024-01-30T08:43:37;6.60;46.20
2751;DHT22;1383;48.362;10.908;2024-01-30T08:46:04;6.80;45.70
2751;DHT22;1383;48.362;10.908;2024-01-30T08:48:31;6.90;44.70
2751;DHT22;1383;48.362;10.908;2024-01-30T08:50:58;7.00;44.00
2751;DHT22;1383;48.362;10.908;2024-01-30T08:53:25;7.10;43.50
2751;DHT22;1383;48.362;10.908;2024-01-30T08:55:52;7.10;43.70
2751;DHT22;1383;48.362;10.908;2024-01-30T08:58:19;6.90;43.10
2751;DHT22;1383;48.362;10.908;2024-01-30T09:00:46;6.80;43.70
2751;DHT22;1383;48.362;10.908;2024-01-30T09:03:13;6.80;44.30
2751;DHT22;1383;48.362;10.908;2024-01-30T09:05:40;7.00;43.80
2751;DHT22;1383;48.362;10.908;2024-01-30T09:08:07;7.10;43.40
2751;DHT22;1383;48.362;10.908;2024-01-30T09:10:34;7.20;42.50
2751;DHT22;1383;48.362;10.908;2024-01-30T09:13:01;7.10;43.10
2751;DHT22;1383;48.362;10.908;2024-01-30T09:15:28;6.90;42.50
2751;DHT22;1383;48.362;10.908;2024-01-30T09:17:55;6.80;43.20
2751;DHT22;1383;48.362;10.908;2024-01-30T09:20:22;6.80;43.60
2751;DHT22;1383;48.362;10.908;2024-01-30T09:22:49;6.90;43.50
2751;DHT22;1383;48.362;10.908;2024-01-30T09:25:16;7.00;43.20
2751;DHT22;1383;48.362;10.908;2024-01-30T09:27:46;7.20;43.30
2751;DHT22;1383;48.362;10.908;2024-01-30T09:30:14;7.40;42.70
2751;DHT22;1383;48.362;10.908;2024-01-30T09:32:42;7.50;42.60
2751;DHT22;1383;48.362;10.908;2024-01-30T09:35:10;7.60;42.00
2751;DHT22;1383;48.362;10.908;2024-01-30T09:37:37;7.70;42.10
2751;DHT22;1383;48.362;10.908;2024-01-30T09:40:04;7.70;42.10
2751;DHT22;1383;48.362;10.908;2024-01-30T09:42:36;8.00;41.80
2751;DHT22;1383;48.362;10.908;2024-01-30T09:45:04;8.20;41.60
2751;DHT22;1383;48.362;10.908;2024-01-30T09:47:35;8.40;40.70
2751;DHT22;1383;48.362;10.908;2024-01-30T09:50:05;8.50;38.90
2751;DHT22;1383;48.362;10.908;2024-01-30T09:52:32;8.60;38.70
2751;DHT22;1383;48.362;10.908;2024-01-30T09:55:00;8.70;38.40
2751;DHT22;1383;48.362;10.908;2024-01-30T09:57:28;9.00;38.40
2751;DHT22;1383;48.362;10.908;2024-01-30T09:59:58;9.10;37.00
2751;DHT22;1383;48.362;10.908;2024-01-30T10:02:25;9.30;36.60
2751;DHT22;1383;48.362;10.908;2024-01-30T10:04:52;9.50;36.20
2751;DHT22;1383;48.362;10.908;2024-01-30T10:07:19;9.70;35.10
2751;DHT22;1383;48.362;10.908;2024-01-30T10:09:46;9.90;34.20
2751;DHT22;1383;48.362;10.908;2024-01-30T10:12:13;10.10;32.90
2751;DHT22;1383;48.362;10.908;2024-01-30T10:14:41;10.50;33.50
2751;DHT22;1383;48.362;10.908;2024-01-30T10:17:09;11.00;32.60
2751;DHT22;1383;48.362;10.908;2024-01-30T10:19:53;11.20;31.70
2751;DHT22;1383;48.362;10.908;2024-01-30T10:22:20;11.70;32.60
2751;DHT22;1383;48.362;10.908;2024-01-30T10:24:48;12.00;31.10
2751;DHT22;1383;48.362;10.908;2024-01-30T10:27:15;12.30;29.70
2751;DHT22;1383;48.362;10.908;2024-01-30T10:29:42;12.40;29.00
2751;DHT22;1383;48.362;10.908;2024-01-30T10:32:09;12.60;28.30
2751;DHT22;1383;48.362;10.908;2024-01-30T10:34:37;12.60;28.70
2751;DHT22;1383;48.362;10.908;2024-01-30T10:37:07;12.60;28.20
2751;DHT22;1383;48.362;10.908;2024-01-30T10:39:41;12.70;28.20
2751;DHT22;1383;48.362;10.908;2024-01-30T10:42:15;12.80;28.00
2751;DHT22;1383;48.362;10.908;2024-01-30T10:45:06;12.80;27.70
2751;DHT22;1383;48.362;10.908;2024-01-30T10:47:36;13.00;28.00
2751;DHT22;1383;48.362;10.908;2024-01-30T10:50:04;13.10;28.20
2751;DHT22;1383;48.362;10.908;2024-01-30T10:52:32;13.00;27.90
2751;DHT22;1383;48.362;10.908;2024-01-30T10:54:59;13.00;27.70
2751;DHT22;1383;48.362;10.908;2024-01-30T10:57:27;12.10;27.90
2751;DHT22;1383;48.362;10.908;2024-01-30T11:00:00;11.60;28.90
2751;DHT22;1383;48.362;10.908;2024-01-30T11:02:28;11.20;29.60
2751;DHT22;1383;48.362;10.908;2024-01-30T11:04:58;11.30;30.00
2751;DHT22;1383;48.362;10.908;2024-01-30T11:07:29;11.40;29.80
2751;DHT22;1383;48.362;10.908;2024-01-30T11:10:00;11.40;30.00
2751;DHT22;1383;48.362;10.908;2024-01-30T11:12:28;11.40;30.50
2751;DHT22;1383;48.362;10.908;2024-01-30T11:15:15;11.50;30.00
2751;DHT22;1383;48.362;10.908;2024-01-30T11:20:20;11.60;30.20
2751;DHT22;1383;48.362;10.908;2024-01-30T11:22:49;11.70;30.50
2751;DHT22;1383;48.362;10.908;2024-01-30T11:25:47;11.70;30.30
2751;DHT22;1383;48.362;10.908;2024-01-30T11:28:15;11.80;28.90
2751;DHT22;1383;48.362;10.908;2024-01-30T11:30:43;11.70;29.00
2751;DHT22;1383;48.362;10.908;2024-01-30T11:33:12;11.70;29.40
2751;DHT22;1383;48.362;10.908;2024-01-30T11:35:43;11.70;28.10
2751;DHT22;1383;48.362;10.908;2024-01-30T11:38:17;11.60;28.40
2751;DHT22;1383;48.362;10.908;2024-01-30T11:40:45;11.50;28.60
2751;DHT22;1383;48.362;10.908;2024-01-30T11:43:12;11.40;28.80
2751;DHT22;1383;48.362;10.908;2024-01-30T11:45:40;11.30;28.90
2751;DHT22;1383;48.362;10.908;2024-01-30T11:48:10;11.40;30.50
2751;DHT22;1383;48.362;10.908;2024-01-30T11:50:41;11.40;29.60
2751;DHT22;1383;48.362;10.908;2024-01-30T11:53:09;11.50;29.70
2751;DHT22;1383;48.362;10.908;2024-01-30T11:56:23;11.60;29.80
2751;DHT22;1383;48.362;10.908;2024-01-30T11:58:50;11.60;29.70
2751;DHT22;1383;48.362;10.908;2024-01-30T12:01:18;11.60;29.20
2751;DHT22;1383;48.362;10.908;2024-01-30T12:03:52;11.50;29.20
2751;DHT22;1383;48.362;10.908;2024-01-30T12:06:19;11.40;29.50
2751;DHT22;1383;48.362;10.908;2024-01-30T12:08:58;11.40;29.70
2751;DHT22;1383;48.362;10.908;2024-01-30T12:11:26;11.50;30.00
2751;DHT22;1383;48.362;10.908;2024-01-30T12:13:57;11.50;29.70
2751;DHT22;1383;48.362;10.908;2024-01-30T12:16:27;11.50;30.00
2751;DHT22;1383;48.362;10.908;2024-01-30T12:19:00;11.60;29.90
2751;DHT22;1383;48.362;10.908;2024-01-30T12:21:30;11.80;29.60
2751;DHT22;1383;48.362;10.908;2024-01-30T12:23:57;11.70;29.50
2751;DHT22;1383;48.362;10.908;2024-01-30T12:26:24;11.80;29.60
2751;DHT22;1383;48.362;10.908;2024-01-30T12:28:55;11.70;30.20
2751;DHT22;1383;48.362;10.908;2024-01-30T12:31:28;11.60;29.50
2751;DHT22;1383;48.362;10.908;2024-01-30T12:33:56;11.80;29.70
2751;DHT22;1383;48.362;10.908;2024-01-30T12:36:25;11.90;29.50
2751;DHT22;1383;48.362;10.908;2024-01-30T12:38:52;11.90;29.50
2751;DHT22;1383;48.362;10.908;2024-01-30T12:41:20;11.90;30.00
2751;DHT22;1383;48.362;10.908;2024-01-30T14:05:21;12.20;29.90
2751;DHT22;1383;48.362;10.908;2024-01-30T14:07:50;12.20;30.10
2751;DHT22;1383;48.362;10.908;2024-01-30T14:10:17;12.10;29.60
2751;DHT22;1383;48.362;10.908;2024-01-30T14:12:44;12.10;30.00
2751;DHT22;1383;48.362;10.908;2024-01-30T14:15:13;12.10;30.10
2751;DHT22;1383;48.362;10.908;2024-01-30T14:17:54;12.10;30.10
2751;DHT22;1383;48.362;10.908;2024-01-30T14:20:21;12.10;29.90
2751;DHT22;1383;48.362;10.908;2024-01-30T14:22:48;12.10;29.90
2751;DHT22;1383;48.362;10.908;2024-01-30T14:25:15;12.10;30.00
2751;DHT22;1383;48.362;10.908;2024-01-30T14:27:43;12.10;30.00
2751;DHT22;1383;48.362;10.908;2024-01-30T14:30:13;12.10;30.00
2751;DHT22;1383;48.362;10.908;2024-01-30T14:32:50;12.10;29.70
2751;DHT22;1383;48.362;10.908;2024-01-30T14:35:35;12.10;29.50
2751;DHT22;1383;48.362;10.908;2024-01-30T14:38:01;12.10;29.40
2751;DHT22;1383;48.362;10.908;2024-01-30T14:40:31;12.10;29.80
2751;DHT22;1383;48.362;10.908;2024-01-30T14:42:58;12.10;30.00
2751;DHT22;1383;48.362;10.908;2024-01-30T14:45:25;12.00;30.20
2751;DHT22;1383;48.362;10.908;2024-01-30T14:47:53;11.90;30.70
2751;DHT22;1383;48.362;10.908;2024-01-30T14:50:23;11.90;30.70
2751;DHT22;1383;48.362;10.908;2024-01-30T14:52:49;11.80;30.90
2751;DHT22;1383;48.362;10.908;2024-01-30T14:55:17;11.80;31.50
2751;DHT22;1383;48.362;10.908;2024-01-30T14:57:44;11.80;31.00
2751;DHT22;1383;48.362;10.908;2024-01-30T15:00:13;11.80;30.90
2751;DHT22;1383;48.362;10.908;2024-01-30T15:02:41;11.60;31.40
2751;DHT22;1383;48.362;10.908;2024-01-30T15:05:08;11.60;31.70
2751;DHT22;1383;48.362;10.908;2024-01-30T15:07:38;11.50;31.90
2751;DHT22;1383;48.362;10.908;2024-01-30T15:10:07;11.50;32.00
2751;DHT22;1383;48.362;10.908;2024-01-30T15:58:32;10.70;37.70
2751;DHT22;1383;48.362;10.908;2024-01-30T16:00:59;10.60;38.80
2751;DHT22;1383;48.362;10.908;2024-01-30T17:51:17;7.20;56.80
2751;DHT22;1383;48.362;10.908;2024-01-30T20:56:40;4.70;69.10
2751;DHT22;1383;48.362;10.908;2024-01-30T20:59:11;4.80;68.20
2751;DHT22;1383;48.362;10.908;2024-01-30T21:01:38;4.80;67.80
2751;DHT22;1383;48.362;10.908;2024-01-30T21:04:06;4.90;67.60
2751;DHT22;1383;48.362;10.908;2024-01-30T21:06:33;4.90;67.60
2751;DHT22;1383;48.362;10.908;2024-01-30T21:09:00;4.90;67.40
2751;DHT22;1383;48.362;10.908;2024-01-30T21:11:27;5.00;66.80
2751;DHT22;1383;48.362;10.908;2024-01-30T21:13:55;5.00;66.20
2751;DHT22;1383;48.362;10.908;2024-01-30T21:16:28;5.00;65.30
2751;DHT22;1383;48.362;10.908;2024-01-30T21:18:56;5.10;65.30
2751;DHT22;1383;48.362;10.908;2024-01-30T21:21:24;5.10;65.10
2751;DHT22;1383;48.362;10.908;2024-01-30T21:23:51;5.20;64.50
2751;DHT22;1383;48.362;10.908;2024-01-30T21:26:18;5.10;64.10
2751;DHT22;1383;48.362;10.908;2024-01-30T21:28:45;5.10;64.40
2751;DHT22;1383;48.362;10.908;2024-01-30T21:31:12;5.20;64.80
2751;DHT22;1383;48.362;10.908;2024-01-30T21:33:42;5.20;63.70
2751;DHT22;1383;48.362;10.908;2024-01-30T21:36:10;5.00;63.80
2751;DHT22;1383;48.362;10.908;2024-01-30T21:38:37;4.90;64.40
2751;DHT22;1383;48.362;10.908;2024-01-30T21:41:05;4.90;65.10
2751;DHT22;1383;48.362;10.908;2024-01-30T21:43:32;4.90;65.20
2751;DHT22;1383;48.362;10.908;2024-01-30T21:45:59;5.00;66.20
2751;DHT22;1383;48.362;10.908;2024-01-30T21:48:26;5.20;65.40
2751;DHT22;1383;48.362;10.908;2024-01-30T21:50:53;5.20;63.90
2751;DHT22;1383;48.362;10.908;2024-01-30T21:53:20;5.20;63.80
2751;DHT22;1383;48.362;10.908;2024-01-30T21:55:47;5.30;63.90
2751;DHT22;1383;48.362;10.908;2024-01-30T21:58:14;5.30;63.40
2751;DHT22;1383;48.362;10.908;2024-01-30T22:00:41;5.40;63.00
2751;DHT22;1383;48.362;10.908;2024-01-30T22:03:08;5.40;62.30
2751;DHT22;1383;48.362;10.908;2024-01-30T22:05:35;5.40;62.40
2751;DHT22;1383;48.362;10.908;2024-01-30T22:08:02;5.30;62.00
2751;DHT22;1383;48.362;10.908;2024-01-30T22:10:30;5.30;62.40
2751;DHT22;1383;48.362;10.908;2024-01-30T22:12:57;5.40;62.10
2751;DHT22;1383;48.362;10.908;2024-01-30T22:15:23;5.40;61.60
2751;DHT22;1383;48.362;10.908;2024-01-30T22:17:50;5.30;61.60
2751;DHT22;1383;48.362;10.908;2024-01-30T22:20:17;5.30;62.00
2751;DHT22;1383;48.362;10.908;2024-01-30T22:22:44;5.40;62.40
2751;DHT22;1383;48.362;10.908;2024-01-30T22:25:11;5.50;61.90
2751;DHT22;1383;48.362;10.908;2024-01-30T22:27:38;5.50;61.00
2751;DHT22;1383;48.362;10.908;2024-01-30T22:30:07;5.50;60.90
2751;DHT22;1383;48.362;10.908;2024-01-30T22:32:34;5.60;61.00
2751;DHT22;1383;48.362;10.908;2024-01-30T22:35:03;5.70;60.40
2751;DHT22;1383;48.362;10.908;2024-01-30T22:37:32;5.70;59.60
2751;DHT22;1383;48.362;10.908;2024-01-30T22:39:59;5.70;59.80
2751;DHT22;1383;48.362;10.908;2024-01-30T22:42:26;5.60;60.10
2751;DHT22;1383;48.362;10.908;2024-01-30T22:44:53;5.60;60.30
2751;DHT22;1383;48.362;10.908;2024-01-30T22:47:25;5.40;60.90
2751;DHT22;1383;48.362;10.908;2024-01-30T22:49:52;5.30;61.90
2751;DHT22;1383;48.362;10.908;2024-01-30T22:52:19;5.50;62.20
2751;DHT22;1383;48.362;10.908;2024-01-30T22:54:46;5.50;61.80
2751;DHT22;1383;48.362;10.908;2024-01-30T22:57:16;5.70;61.70
2751;DHT22;1383;48.362;10.908;2024-01-30T22:59:43;5.80;61.10
2751;DHT22;1383;48.362;10.908;2024-01-30T23:02:10;6.00;60.60